sensor_id;sensor_type;location;lat;lon;timestamp;pressure;altitude;pressure_sealevel;temperature;humidity
69751;BME280;57335;52.288;6.056;2023-05-02T00:00:28;101952.47;;;10.22;100.00
69751;BME280;57335;52.288;6.056;2023-05-02T00:02:54;101956.59;;;10.25;100.00
69751;BME280;57335;52.288;6.056;2023-05-02T00:05:21;101944.63;;;10.22;100.00
69751;BME280;57335;52.288;6.056;2023-05-02T00:07:47;101954.84;;;10.17;100.00
69751;BME280;57335;52.288;6.056;2023-05-02T00:10:14;101952.44;;;10.07;100.00
69751;BME280;57335;52.288;6.056;2023-05-02T00:12:40;101963.22;;;10.12;100.00
69751;BME280;57335;52.288;6.056;2023-05-02T00:15:07;101951.09;;;10.11;100.00
69751;BME280;57335;52.288;6.056;2023-05-02T00:17:33;101949.13;;;10.13;100.00
69751;BME280;57335;52.288;6.056;2023-05-02T00:20:00;101953.31;;;10.23;100.00
69751;BME280;57335;52.288;6.056;2023-05-02T00:22:26;101951.13;;;10.26;100.00
69751;BME280;57335;52.288;6.056;2023-05-02T00:24:57;101946.88;;;10.33;100.00
69751;BME280;57335;52.288;6.056;2023-05-02T00:27:23;101954.19;;;10.38;100.00
69751;BME280;57335;52.288;6.056;2023-05-02T00:29:50;101932.97;;;10.33;100.00
69751;BME280;57335;52.288;6.056;2023-05-02T00:32:17;101948.13;;;10.37;100.00
69751;BME280;57335;52.288;6.056;2023-05-02T00:34:43;101948.78;;;10.40;100.00
69751;BME280;57335;52.288;6.056;2023-05-02T00:37:09;101946.97;;;10.40;100.00
69751;BME280;57335;52.288;6.056;2023-05-02T00:39:36;101960.19;;;10.47;100.00
69751;BME280;57335;52.288;6.056;2023-05-02T00:42:02;101948.13;;;10.37;100.00
69751;BME280;57335;52.288;6.056;2023-05-02T00:44:29;101949.94;;;10.37;100.00
69751;BME280;57335;52.288;6.056;2023-05-02T00:46:55;101963.97;;;10.44;100.00
69751;BME280;57335;52.288;6.056;2023-05-02T00:49:22;101963.31;;;10.42;100.00
69751;BME280;57335;52.288;6.056;2023-05-02T00:51:49;101962.69;;;10.40;100.00
69751;BME280;57335;52.288;6.056;2023-05-02T00:54:15;101973.16;;;10.40;100.00
69751;BME280;57335;52.288;6.056;2023-05-02T00:56:41;101970.84;;;10.45;100.00
69751;BME280;57335;52.288;6.056;2023-05-02T00:59:08;101960.06;;;10.40;100.00
69751;BME280;57335;52.288;6.056;2023-05-02T01:01:49;101965.84;;;10.35;100.00
69751;BME280;57335;52.288;6.056;2023-05-02T01:07:05;101983.38;;;10.35;100.00
69751;BME280;57335;52.288;6.056;2023-05-02T01:10:00;101959.50;;;10.30;100.00
69751;BME280;57335;52.288;6.056;2023-05-02T01:15:05;101985.53;;;10.31;100.00
69751;BME280;57335;52.288;6.056;2023-05-02T01:17:33;101978.69;;;10.22;100.00
69751;BME280;57335;52.288;6.056;2023-05-02T01:20:07;101991.78;;;10.22;100.00
69751;BME280;57335;52.288;6.056;2023-05-02T01:22:37;101978.41;;;10.17;100.00
69751;BME280;57335;52.288;6.056;2023-05-02T01:31:17;101980.44;;;10.07;100.00
69751;BME280;57335;52.288;6.056;2023-05-02T01:33:44;101977.53;;;10.02;100.00
69751;BME280;57335;52.288;6.056;2023-05-02T01:36:13;101981.00;;;9.94;100.00
69751;BME280;57335;52.288;6.056;2023-05-02T01:38:41;101987.56;;;9.90;100.00
69751;BME280;57335;52.288;6.056;2023-05-02T01:41:09;101979.44;;;9.85;100.00
69751;BME280;57335;52.288;6.056;2023-05-02T01:43:38;101993.34;;;9.85;100.00
69751;BME280;57335;52.288;6.056;2023-05-02T01:46:06;102005.09;;;9.89;100.00
69751;BME280;57335;52.288;6.056;2023-05-02T01:48:34;101986.34;;;9.77;100.00
69751;BME280;57335;52.288;6.056;2023-05-02T01:51:02;102005.63;;;9.85;100.00
69751;BME280;57335;52.288;6.056;2023-05-02T01:53:30;102002.53;;;9.81;100.00
69751;BME280;57335;52.288;6.056;2023-05-02T01:55:59;102007.13;;;9.79;100.00
69751;BME280;57335;52.288;6.056;2023-05-02T01:58:28;102018.41;;;9.79;100.00
69751;BME280;57335;52.288;6.056;2023-05-02T02:00:57;102015.88;;;9.63;100.00
69751;BME280;57335;52.288;6.056;2023-05-02T02:03:25;102021.09;;;9.63;100.00
69751;BME280;57335;52.288;6.056;2023-05-02T02:05:54;102025.69;;;9.61;100.00
69751;BME280;57335;52.288;6.056;2023-05-02T02:08:21;102023.59;;;9.56;100.00
69751;BME280;57335;52.288;6.056;2023-05-02T02:10:58;102024.75;;;9.46;100.00
69751;BME280;57335;52.288;6.056;2023-05-02T02:13:28;102030.97;;;9.53;100.00
69751;BME280;57335;52.288;6.056;2023-05-02T02:15:58;102031.66;;;9.47;100.00
69751;BME280;57335;52.288;6.056;2023-05-02T02:18:28;102046.03;;;9.51;100.00
69751;BME280;57335;52.288;6.056;2023-05-02T02:20:58;102029.03;;;9.47;100.00
69751;BME280;57335;52.288;6.056;2023-05-02T02:23:26;102044.88;;;9.45;100.00
69751;BME280;57335;52.288;6.056;2023-05-02T02:25:54;102056.47;;;9.51;100.00
69751;BME280;57335;52.288;6.056;2023-05-02T02:28:21;102056.81;;;9.48;100.00
69751;BME280;57335;52.288;6.056;2023-05-02T02:30:48;102057.97;;;9.45;100.00
69751;BME280;57335;52.288;6.056;2023-05-02T02:33:14;102055.34;;;9.45;100.00
69751;BME280;57335;52.288;6.056;2023-05-02T02:35:42;102066.16;;;9.42;100.00
69751;BME280;57335;52.288;6.056;2023-05-02T02:38:37;102074.19;;;9.41;100.00
69751;BME280;57335;52.288;6.056;2023-05-02T02:41:13;102065.72;;;9.30;100.00
69751;BME280;57335;52.288;6.056;2023-05-02T02:44:06;102067.97;;;9.33;100.00
69751;BME280;57335;52.288;6.056;2023-05-02T02:46:46;102078.78;;;9.38;100.00
69751;BME280;57335;52.288;6.056;2023-05-02T02:49:31;102071.25;;;9.35;100.00
69751;BME280;57335;52.288;6.056;2023-05-02T02:55:06;102088.22;;;9.39;100.00
69751;BME280;57335;52.288;6.056;2023-05-02T02:58:20;102089.38;;;9.45;100.00
69751;BME280;57335;52.288;6.056;2023-05-02T03:00:50;102080.41;;;9.31;100.00
69751;BME280;57335;52.288;6.056;2023-05-02T03:03:17;102093.47;;;9.39;100.00
69751;BME280;57335;52.288;6.056;2023-05-02T03:05:45;102094.13;;;9.33;100.00
69751;BME280;57335;52.288;6.056;2023-05-02T03:08:12;102086.00;;;9.28;100.00
69751;BME280;57335;52.288;6.056;2023-05-02T03:10:38;102100.38;;;9.32;100.00
69751;BME280;57335;52.288;6.056;2023-05-02T03:13:05;102100.03;;;9.27;100.00
69751;BME280;57335;52.288;6.056;2023-05-02T03:18:17;102101.19;;;9.25;100.00
69751;BME280;57335;52.288;6.056;2023-05-02T03:20:44;102108.38;;;9.23;100.00
69751;BME280;57335;52.288;6.056;2023-05-02T03:23:10;102111.66;;;9.25;100.00
69751;BME280;57335;52.288;6.056;2023-05-02T03:25:36;102109.19;;;9.23;100.00
69751;BME280;57335;52.288;6.056;2023-05-02T03:28:03;102114.59;;;9.22;100.00
69751;BME280;57335;52.288;6.056;2023-05-02T03:30:29;102126.03;;;9.29;100.00
69751;BME280;57335;52.288;6.056;2023-05-02T03:32:56;102134.03;;;9.27;100.00
69751;BME280;57335;52.288;6.056;2023-05-02T03:35:22;102141.41;;;9.24;100.00
69751;BME280;57335;52.288;6.056;2023-05-02T03:37:49;102140.09;;;9.03;100.00
69751;BME280;57335;52.288;6.056;2023-05-02T03:40:15;102160.03;;;8.96;100.00
69751;BME280;57335;52.288;6.056;2023-05-02T03:42:42;102159.19;;;8.71;100.00
69751;BME280;57335;52.288;6.056;2023-05-02T03:45:08;102161.78;;;8.63;100.00
69751;BME280;57335;52.288;6.056;2023-05-02T03:47:35;102158.16;;;8.55;100.00
69751;BME280;57335;52.288;6.056;2023-05-02T03:50:01;102161.44;;;8.49;100.00
69751;BME280;57335;52.288;6.056;2023-05-02T03:52:28;102166.81;;;8.48;100.00
69751;BME280;57335;52.288;6.056;2023-05-02T03:54:54;102155.31;;;8.32;100.00
69751;BME280;57335;52.288;6.056;2023-05-02T03:57:21;102164.97;;;8.40;100.00
69751;BME280;57335;52.288;6.056;2023-05-02T03:59:47;102163.97;;;8.33;100.00
69751;BME280;57335;52.288;6.056;2023-05-02T04:02:14;102185.22;;;8.38;100.00
69751;BME280;57335;52.288;6.056;2023-05-02T04:04:40;102180.97;;;8.37;100.00
69751;BME280;57335;52.288;6.056;2023-05-02T04:07:07;102179.13;;;8.29;100.00
69751;BME280;57335;52.288;6.056;2023-05-02T04:09:33;102190.06;;;8.25;100.00
69751;BME280;57335;52.288;6.056;2023-05-02T04:11:59;102190.53;;;8.20;100.00
69751;BME280;57335;52.288;6.056;2023-05-02T04:14:26;102192.50;;;8.18;100.00
69751;BME280;57335;52.288;6.056;2023-05-02T04:16:52;102190.31;;;8.13;100.00
69751;BME280;57335;52.288;6.056;2023-05-02T04:19:19;102197.19;;;8.14;100.00
69751;BME280;57335;52.288;6.056;2023-05-02T04:21:45;102216.47;;;8.22;100.00
69751;BME280;57335;52.288;6.056;2023-05-02T04:24:12;102213.84;;;8.22;100.00
69751;BME280;57335;52.288;6.056;2023-05-02T04:26:39;102221.38;;;8.16;100.00
69751;BME280;57335;52.288;6.056;2023-05-02T04:29:05;102227.06;;;8.12;100.00
69751;BME280;57335;52.288;6.056;2023-05-02T04:31:32;102227.66;;;8.06;100.00
69751;BME280;57335;52.288;6.056;2023-05-02T04:33:59;102223.22;;;7.98;100.00
69751;BME280;57335;52.288;6.056;2023-05-02T04:36:25;102236.28;;;7.98;100.00
69751;BME280;57335;52.288;6.056;2023-05-02T04:38:52;102230.69;;;7.93;100.00
69751;BME280;57335;52.288;6.056;2023-05-02T04:41:18;102243.63;;;8.03;100.00
69751;BME280;57335;52.288;6.056;2023-05-02T04:43:45;102246.06;;;7.96;100.00
69751;BME280;57335;52.288;6.056;2023-05-02T04:46:11;102247.47;;;7.90;100.00
69751;BME280;57335;52.288;6.056;2023-05-02T04:48:37;102258.13;;;7.97;100.00
69751;BME280;57335;52.288;6.056;2023-05-02T04:51:04;102257.13;;;7.90;100.00
69751;BME280;57335;52.288;6.056;2023-05-02T04:53:30;102270.66;;;7.93;100.00
69751;BME280;57335;52.288;6.056;2023-05-02T04:55:57;102268.31;;;7.82;100.00
69751;BME280;57335;52.288;6.056;2023-05-02T04:58:23;102274.50;;;7.81;100.00
69751;BME280;57335;52.288;6.056;2023-05-02T05:00:49;102285.31;;;7.86;100.00
69751;BME280;57335;52.288;6.056;2023-05-02T05:03:16;102281.31;;;7.74;100.00
69751;BME280;57335;52.288;6.056;2023-05-02T05:05:42;102303.81;;;7.75;100.00
69751;BME280;57335;52.288;6.056;2023-05-02T05:08:09;102300.84;;;7.70;100.00
69751;BME280;57335;52.288;6.056;2023-05-02T05:10:35;102304.03;;;7.64;100.00
69751;BME280;57335;52.288;6.056;2023-05-02T05:13:01;102289.50;;;7.61;100.00
69751;BME280;57335;52.288;6.056;2023-05-02T05:15:28;102306.94;;;7.61;100.00
69751;BME280;57335;52.288;6.056;2023-05-02T05:17:54;102308.44;;;7.63;100.00
69751;BME280;57335;52.288;6.056;2023-05-02T05:20:21;102301.66;;;7.52;100.00
69751;BME280;57335;52.288;6.056;2023-05-02T05:22:47;102320.00;;;7.61;100.00
69751;BME280;57335;52.288;6.056;2023-05-02T05:25:13;102316.34;;;7.53;100.00
69751;BME280;57335;52.288;6.056;2023-05-02T05:27:40;102323.88;;;7.56;100.00
69751;BME280;57335;52.288;6.056;2023-05-02T05:30:06;102336.47;;;7.61;100.00
69751;BME280;57335;52.288;6.056;2023-05-02T05:32:33;102339.06;;;7.61;100.00
69751;BME280;57335;52.288;6.056;2023-05-02T05:35:00;102327.97;;;7.59;100.00
69751;BME280;57335;52.288;6.056;2023-05-02T05:37:26;102329.91;;;7.57;100.00
69751;BME280;57335;52.288;6.056;2023-05-02T05:39:53;102348.63;;;7.70;100.00
69751;BME280;57335;52.288;6.056;2023-05-02T05:42:19;102340.56;;;7.64;98.72
69751;BME280;57335;52.288;6.056;2023-05-02T05:44:45;102354.50;;;7.72;100.00
69751;BME280;57335;52.288;6.056;2023-05-02T05:47:12;102344.22;;;7.71;99.72
69751;BME280;57335;52.288;6.056;2023-05-02T05:49:43;102345.41;;;7.76;99.98
69751;BME280;57335;52.288;6.056;2023-05-02T05:52:10;102366.38;;;7.85;99.72
69751;BME280;57335;52.288;6.056;2023-05-02T05:54:36;102362.09;;;7.84;100.00
69751;BME280;57335;52.288;6.056;2023-05-02T05:57:02;102365.69;;;7.83;99.84
69751;BME280;57335;52.288;6.056;2023-05-02T05:59:29;102373.81;;;7.79;100.00
69751;BME280;57335;52.288;6.056;2023-05-02T06:01:55;102370.97;;;7.73;99.32
69751;BME280;57335;52.288;6.056;2023-05-02T06:04:21;102387.25;;;7.67;98.78
69751;BME280;57335;52.288;6.056;2023-05-02T06:06:48;102386.72;;;7.63;97.73
69751;BME280;57335;52.288;6.056;2023-05-02T06:09:14;102391.13;;;7.63;95.16
69751;BME280;57335;52.288;6.056;2023-05-02T06:11:41;102402.09;;;7.66;95.56
69751;BME280;57335;52.288;6.056;2023-05-02T06:14:07;102412.81;;;7.63;94.02
69751;BME280;57335;52.288;6.056;2023-05-02T06:16:33;102414.75;;;7.61;93.13
69751;BME280;57335;52.288;6.056;2023-05-02T06:19:00;102413.13;;;7.60;93.40
69751;BME280;57335;52.288;6.056;2023-05-02T06:21:26;102405.03;;;7.53;91.09
69751;BME280;57335;52.288;6.056;2023-05-02T06:23:52;102422.56;;;7.61;91.73
69751;BME280;57335;52.288;6.056;2023-05-02T06:26:19;102419.50;;;7.66;91.58
69751;BME280;57335;52.288;6.056;2023-05-02T06:28:45;102424.31;;;7.70;90.64
69751;BME280;57335;52.288;6.056;2023-05-02T06:31:12;102416.84;;;7.75;91.80
69751;BME280;57335;52.288;6.056;2023-05-02T06:33:38;102442.06;;;7.85;91.29
69751;BME280;57335;52.288;6.056;2023-05-02T06:36:04;102442.06;;;7.85;89.81
69751;BME280;57335;52.288;6.056;2023-05-02T06:38:31;102432.66;;;7.74;90.65
69751;BME280;57335;52.288;6.056;2023-05-02T06:40:57;102448.53;;;7.81;89.99
69751;BME280;57335;52.288;6.056;2023-05-02T06:43:23;102457.19;;;7.81;89.86
69751;BME280;57335;52.288;6.056;2023-05-02T06:45:53;102455.78;;;7.87;90.50
69751;BME280;57335;52.288;6.056;2023-05-02T06:48:20;102474.34;;;7.84;89.11
69751;BME280;57335;52.288;6.056;2023-05-02T06:50:47;102469.97;;;7.84;90.69
69751;BME280;57335;52.288;6.056;2023-05-02T06:53:14;102476.28;;;7.82;90.98
69751;BME280;57335;52.288;6.056;2023-05-02T06:55:40;102489.09;;;7.75;88.90
69751;BME280;57335;52.288;6.056;2023-05-02T06:58:07;102477.22;;;7.63;89.15
69751;BME280;57335;52.288;6.056;2023-05-02T07:00:33;102483.97;;;7.55;85.58
69751;BME280;57335;52.288;6.056;2023-05-02T07:03:00;102500.16;;;7.59;85.65
69751;BME280;57335;52.288;6.056;2023-05-02T07:05:26;102493.91;;;7.52;86.04
69751;BME280;57335;52.288;6.056;2023-05-02T07:07:52;102496.06;;;7.56;86.05
69751;BME280;57335;52.288;6.056;2023-05-02T07:10:19;102501.50;;;7.63;84.60
69751;BME280;57335;52.288;6.056;2023-05-02T07:12:45;102497.06;;;7.73;85.50
69751;BME280;57335;52.288;6.056;2023-05-02T07:15:11;102509.88;;;7.94;83.52
69751;BME280;57335;52.288;6.056;2023-05-02T07:17:38;102507.56;;;8.09;82.91
69751;BME280;57335;52.288;6.056;2023-05-02T07:20:06;102521.09;;;8.41;83.19
69751;BME280;57335;52.288;6.056;2023-05-02T07:22:32;102519.38;;;8.49;76.26
69751;BME280;57335;52.288;6.056;2023-05-02T07:25:01;102515.50;;;8.53;75.35
69751;BME280;57335;52.288;6.056;2023-05-02T07:27:27;102529.88;;;8.75;73.71
69751;BME280;57335;52.288;6.056;2023-05-02T07:29:54;102525.69;;;8.83;74.69
69751;BME280;57335;52.288;6.056;2023-05-02T07:32:20;102536.88;;;8.93;71.73
69751;BME280;57335;52.288;6.056;2023-05-02T07:34:47;102525.00;;;8.98;73.17
69751;BME280;57335;52.288;6.056;2023-05-02T07:37:13;102527.28;;;9.02;71.79
69751;BME280;57335;52.288;6.056;2023-05-02T07:39:40;102512.63;;;9.09;73.40
69751;BME280;57335;52.288;6.056;2023-05-02T07:42:06;102514.28;;;9.18;74.00
69751;BME280;57335;52.288;6.056;2023-05-02T07:44:33;102532.53;;;9.36;75.49
69751;BME280;57335;52.288;6.056;2023-05-02T07:46:59;102518.78;;;9.34;73.32
69751;BME280;57335;52.288;6.056;2023-05-02T07:49:25;102531.72;;;9.35;69.79
69751;BME280;57335;52.288;6.056;2023-05-02T07:51:52;102534.44;;;9.60;67.69
69751;BME280;57335;52.288;6.056;2023-05-02T07:54:19;102538.75;;;9.69;69.01
69751;BME280;57335;52.288;6.056;2023-05-02T07:56:46;102548.41;;;9.69;67.39
69751;BME280;57335;52.288;6.056;2023-05-02T07:59:12;102545.09;;;9.58;68.18
69751;BME280;57335;52.288;6.056;2023-05-02T08:01:39;102546.88;;;9.58;67.96
69751;BME280;57335;52.288;6.056;2023-05-02T08:04:07;102543.25;;;9.51;67.01
69751;BME280;57335;52.288;6.056;2023-05-02T08:06:33;102543.69;;;9.72;67.75
69751;BME280;57335;52.288;6.056;2023-05-02T08:09:00;102546.63;;;9.77;66.00
69751;BME280;57335;52.288;6.056;2023-05-02T08:11:26;102558.41;;;9.82;67.08
69751;BME280;57335;52.288;6.056;2023-05-02T08:13:53;102548.25;;;9.70;66.42
69751;BME280;57335;52.288;6.056;2023-05-02T08:16:20;102559.03;;;9.67;65.83
69751;BME280;57335;52.288;6.056;2023-05-02T08:18:46;102555.31;;;9.44;63.32
69751;BME280;57335;52.288;6.056;2023-05-02T08:21:13;102553.84;;;9.41;68.26
69751;BME280;57335;52.288;6.056;2023-05-02T08:23:40;102555.69;;;9.49;66.22
69751;BME280;57335;52.288;6.056;2023-05-02T08:26:07;102562.44;;;9.59;67.94
69751;BME280;57335;52.288;6.056;2023-05-02T08:28:33;102564.41;;;9.66;61.43
69751;BME280;57335;52.288;6.056;2023-05-02T08:31:00;102574.09;;;9.73;63.41
69751;BME280;57335;52.288;6.056;2023-05-02T08:33:26;102571.66;;;9.80;63.10
69751;BME280;57335;52.288;6.056;2023-05-02T08:35:52;102585.03;;;10.11;61.02
69751;BME280;57335;52.288;6.056;2023-05-02T08:38:19;102586.72;;;10.21;64.33
69751;BME280;57335;52.288;6.056;2023-05-02T08:40:45;102580.97;;;10.25;61.01
69751;BME280;57335;52.288;6.056;2023-05-02T08:43:12;102589.34;;;10.21;59.56
69751;BME280;57335;52.288;6.056;2023-05-02T08:45:40;102599.47;;;10.24;59.16
69751;BME280;57335;52.288;6.056;2023-05-02T08:48:08;102594.38;;;10.22;59.83
69751;BME280;57335;52.288;6.056;2023-05-02T08:50:39;102592.09;;;10.11;60.79
69751;BME280;57335;52.288;6.056;2023-05-02T08:53:07;102608.13;;;10.16;62.81
69751;BME280;57335;52.288;6.056;2023-05-02T08:55:36;102619.41;;;10.51;63.43
69751;BME280;57335;52.288;6.056;2023-05-02T08:58:03;102597.28;;;10.94;57.60
69751;BME280;57335;52.288;6.056;2023-05-02T09:00:31;102597.59;;;11.00;59.35
69751;BME280;57335;52.288;6.056;2023-05-02T09:05:24;102618.28;;;10.94;61.75
69751;BME280;57335;52.288;6.056;2023-05-02T09:07:51;102603.81;;;10.90;62.90
69751;BME280;57335;52.288;6.056;2023-05-02T09:10:17;102601.88;;;10.84;61.96
69751;BME280;57335;52.288;6.056;2023-05-02T09:12:43;102613.47;;;11.14;62.87
69751;BME280;57335;52.288;6.056;2023-05-02T09:15:15;102619.53;;;11.40;61.21
69751;BME280;57335;52.288;6.056;2023-05-02T09:17:46;102625.44;;;11.42;59.95
69751;BME280;57335;52.288;6.056;2023-05-02T09:20:15;102630.56;;;11.27;58.80
69751;BME280;57335;52.288;6.056;2023-05-02T09:22:51;102625.97;;;10.80;59.67
69751;BME280;57335;52.288;6.056;2023-05-02T09:25:20;102628.22;;;10.50;60.53
69751;BME280;57335;52.288;6.056;2023-05-02T09:27:48;102637.06;;;10.41;63.90
69751;BME280;57335;52.288;6.056;2023-05-02T09:30:25;102639.50;;;10.34;65.11
69751;BME280;57335;52.288;6.056;2023-05-02T09:32:51;102635.56;;;10.38;65.30
69751;BME280;57335;52.288;6.056;2023-05-02T09:35:18;102634.53;;;10.23;63.87
69751;BME280;57335;52.288;6.056;2023-05-02T09:37:44;102651.94;;;10.40;63.30
69751;BME280;57335;52.288;6.056;2023-05-02T09:40:11;102640.50;;;10.41;64.37
69751;BME280;57335;52.288;6.056;2023-05-02T09:42:37;102641.84;;;10.53;62.52
69751;BME280;57335;52.288;6.056;2023-05-02T09:45:04;102648.41;;;10.57;64.36
69751;BME280;57335;52.288;6.056;2023-05-02T09:47:31;102652.81;;;10.57;62.86
69751;BME280;57335;52.288;6.056;2023-05-02T09:49:57;102650.66;;;10.44;60.68
69751;BME280;57335;52.288;6.056;2023-05-02T09:52:24;102648.38;;;10.41;62.01
69751;BME280;57335;52.288;6.056;2023-05-02T09:54:50;102639.22;;;10.62;61.68
69751;BME280;57335;52.288;6.056;2023-05-02T09:57:16;102660.72;;;10.73;60.38
69751;BME280;57335;52.288;6.056;2023-05-02T09:59:54;102664.63;;;10.69;61.29
69751;BME280;57335;52.288;6.056;2023-05-02T10:02:21;102656.59;;;10.54;59.71
69751;BME280;57335;52.288;6.056;2023-05-02T10:04:48;102674.63;;;10.66;58.48
69751;BME280;57335;52.288;6.056;2023-05-02T10:07:16;102672.22;;;10.89;62.15
69751;BME280;57335;52.288;6.056;2023-05-02T10:09:43;102678.28;;;11.38;60.40
69751;BME280;57335;52.288;6.056;2023-05-02T10:12:14;102670.66;;;11.68;58.47
69751;BME280;57335;52.288;6.056;2023-05-02T10:14:46;102673.13;;;11.70;57.38
69751;BME280;57335;52.288;6.056;2023-05-02T10:17:52;102686.47;;;11.44;58.71
69751;BME280;57335;52.288;6.056;2023-05-02T10:20:22;102677.56;;;11.69;55.28
69751;BME280;57335;52.288;6.056;2023-05-02T10:22:53;102675.22;;;11.74;55.66
69751;BME280;57335;52.288;6.056;2023-05-02T10:25:20;102670.56;;;12.09;57.15
69751;BME280;57335;52.288;6.056;2023-05-02T10:27:47;102650.91;;;12.60;54.87
69751;BME280;57335;52.288;6.056;2023-05-02T10:30:13;102649.59;;;13.02;53.73
69751;BME280;57335;52.288;6.056;2023-05-02T10:32:41;102669.66;;;12.80;53.59
69751;BME280;57335;52.288;6.056;2023-05-02T10:35:11;102659.06;;;12.65;54.19
69751;BME280;57335;52.288;6.056;2023-05-02T10:37:39;102667.22;;;12.47;50.97
69751;BME280;57335;52.288;6.056;2023-05-02T10:40:09;102653.88;;;12.56;52.92
69751;BME280;57335;52.288;6.056;2023-05-02T10:42:37;102660.34;;;12.46;54.35
69751;BME280;57335;52.288;6.056;2023-05-02T10:45:10;102663.25;;;12.28;50.44
69751;BME280;57335;52.288;6.056;2023-05-02T10:47:37;102674.97;;;12.48;52.70
69751;BME280;57335;52.288;6.056;2023-05-02T10:50:04;102670.00;;;12.53;52.60
69751;BME280;57335;52.288;6.056;2023-05-02T10:52:37;102673.72;;;12.67;56.01
69751;BME280;57335;52.288;6.056;2023-05-02T11:00:31;102684.72;;;12.71;52.26
69751;BME280;57335;52.288;6.056;2023-05-02T11:02:59;102681.06;;;12.72;52.67
69751;BME280;57335;52.288;6.056;2023-05-02T11:05:26;102683.38;;;12.44;55.56
69751;BME280;57335;52.288;6.056;2023-05-02T11:08:29;102687.13;;;12.72;54.13
69751;BME280;57335;52.288;6.056;2023-05-02T11:10:55;102688.59;;;12.98;52.03
69751;BME280;57335;52.288;6.056;2023-05-02T11:13:47;102683.69;;;13.56;53.01
69751;BME280;57335;52.288;6.056;2023-05-02T11:16:14;102685.91;;;14.33;55.50
69751;BME280;57335;52.288;6.056;2023-05-02T11:18:59;102689.59;;;14.54;53.93
69751;BME280;57335;52.288;6.056;2023-05-02T11:21:27;102680.72;;;14.40;49.64
69751;BME280;57335;52.288;6.056;2023-05-02T11:29:56;102695.91;;;13.11;55.21
69751;BME280;57335;52.288;6.056;2023-05-02T11:32:24;102699.41;;;12.57;54.35
69751;BME280;57335;52.288;6.056;2023-05-02T11:34:51;102710.44;;;12.21;56.42
69751;BME280;57335;52.288;6.056;2023-05-02T11:37:19;102710.84;;;11.93;55.64
69751;BME280;57335;52.288;6.056;2023-05-02T11:39:45;102701.16;;;11.86;55.20
69751;BME280;57335;52.288;6.056;2023-05-02T11:42:27;102694.59;;;11.90;54.88
69751;BME280;57335;52.288;6.056;2023-05-02T11:44:59;102694.91;;;12.03;57.62
69751;BME280;57335;52.288;6.056;2023-05-02T11:47:26;102706.03;;;12.45;55.38
69751;BME280;57335;52.288;6.056;2023-05-02T11:49:54;102699.63;;;12.47;54.71
69751;BME280;57335;52.288;6.056;2023-05-02T11:52:22;102703.75;;;12.73;56.31
69751;BME280;57335;52.288;6.056;2023-05-02T11:54:52;102712.41;;;12.82;56.74
69751;BME280;57335;52.288;6.056;2023-05-02T11:57:18;102709.03;;;12.73;57.66
69751;BME280;57335;52.288;6.056;2023-05-02T11:59:52;102717.34;;;12.53;56.25
69751;BME280;57335;52.288;6.056;2023-05-02T12:02:21;102721.56;;;12.31;56.34
69751;BME280;57335;52.288;6.056;2023-05-02T12:05:01;102726.34;;;12.28;56.83
69751;BME280;57335;52.288;6.056;2023-05-02T12:10:01;102728.81;;;12.29;59.34
69751;BME280;57335;52.288;6.056;2023-05-02T12:12:28;102725.53;;;12.58;56.26
69751;BME280;57335;52.288;6.056;2023-05-02T12:14:54;102733.53;;;12.34;54.75
69751;BME280;57335;52.288;6.056;2023-05-02T12:17:21;102733.00;;;12.07;58.81
69751;BME280;57335;52.288;6.056;2023-05-02T12:19:49;102732.03;;;11.92;59.99
69751;BME280;57335;52.288;6.056;2023-05-02T12:22:16;102751.59;;;11.81;57.86
69751;BME280;57335;52.288;6.056;2023-05-02T12:24:42;102741.41;;;11.78;60.45
69751;BME280;57335;52.288;6.056;2023-05-02T12:27:13;102735.97;;;11.88;58.78
69751;BME280;57335;52.288;6.056;2023-05-02T12:29:41;102755.38;;;11.95;58.27
69751;BME280;57335;52.288;6.056;2023-05-02T12:32:09;102749.63;;;11.91;55.86
69751;BME280;57335;52.288;6.056;2023-05-02T12:34:37;102744.53;;;11.90;57.50
69751;BME280;57335;52.288;6.056;2023-05-02T12:37:04;102753.88;;;11.92;60.26
69751;BME280;57335;52.288;6.056;2023-05-02T12:39:41;102766.50;;;11.81;57.72
69751;BME280;57335;52.288;6.056;2023-05-02T12:42:15;102767.19;;;11.91;55.07
69751;BME280;57335;52.288;6.056;2023-05-02T12:44:43;102769.47;;;11.86;57.53
69751;BME280;57335;52.288;6.056;2023-05-02T12:47:11;102770.94;;;11.88;57.17
69751;BME280;57335;52.288;6.056;2023-05-02T12:52:13;102775.38;;;12.04;57.27
69751;BME280;57335;52.288;6.056;2023-05-02T12:54:40;102772.91;;;12.11;55.88
69751;BME280;57335;52.288;6.056;2023-05-02T12:57:07;102763.47;;;12.25;55.38
69751;BME280;57335;52.288;6.056;2023-05-02T12:59:33;102776.88;;;12.46;54.52
69751;BME280;57335;52.288;6.056;2023-05-02T13:02:00;102766.31;;;12.54;59.06
69751;BME280;57335;52.288;6.056;2023-05-02T13:04:36;102772.59;;;12.53;59.01
69751;BME280;57335;52.288;6.056;2023-05-02T13:07:03;102771.34;;;12.33;53.44
69751;BME280;57335;52.288;6.056;2023-05-02T13:09:29;102776.38;;;12.03;56.48
69751;BME280;57335;52.288;6.056;2023-05-02T13:11:55;102774.56;;;11.79;56.57
69751;BME280;57335;52.288;6.056;2023-05-02T13:14:22;102776.06;;;11.65;57.33
69751;BME280;57335;52.288;6.056;2023-05-02T13:16:48;102783.59;;;11.68;57.45
69751;BME280;57335;52.288;6.056;2023-05-02T13:19:15;102781.78;;;11.77;57.08
69751;BME280;57335;52.288;6.056;2023-05-02T13:21:41;102775.06;;;11.83;56.21
69751;BME280;57335;52.288;6.056;2023-05-02T13:24:07;102778.00;;;11.96;55.46
69751;BME280;57335;52.288;6.056;2023-05-02T13:26:34;102781.19;;;12.39;61.81
69751;BME280;57335;52.288;6.056;2023-05-02T13:29:00;102784.19;;;12.67;55.13
69751;BME280;57335;52.288;6.056;2023-05-02T13:31:26;102789.69;;;12.81;53.98